Time;durP1;ratioP1;P1;durP2;ratioP2;P2;SDS_P1;SDS_P2;PMS_P1;PMS_P2;Temp;Humidity;BMP_temperature;BMP_pressure;BME280_temperature;BME280_humidity;BME280_pressure;Samples;Min_cycle;Max_cycle;Signal;HPM_P1;HPM_P2
2022/05/22 00:02:05;;;;;;;3.00;2.77;;;23.00;45.60;;;;;;5055150;28;20455;-43
2022/05/22 00:04:32;;;;;;;4.03;2.67;;;22.90;45.70;;;;;;5051664;28;20574;-44
2022/05/22 00:06:57;;;;;;;4.10;3.23;;;22.90;45.70;;;;;;5065195;28;21001;-43
2022/05/22 00:09:24;;;;;;;3.40;3.10;;;22.90;45.90;;;;;;5062627;28;20529;-43
2022/05/22 00:11:50;;;;;;;2.97;2.73;;;22.90;45.70;;;;;;5055668;28;20325;-42
2022/05/22 00:14:17;;;;;;;2.30;2.20;;;22.90;45.90;;;;;;5053202;28;20849;-43
2022/05/22 00:16:46;;;;;;;3.40;3.03;;;22.90;45.80;;;;;;5059924;28;20627;-42
2022/05/22 00:19:18;;;;;;;2.80;2.60;;;22.90;45.90;;;;;;5057695;28;20449;-43
2022/05/22 00:21:44;;;;;;;2.73;2.53;;;22.90;45.80;;;;;;5065939;28;20465;-42
2022/05/22 00:24:12;;;;;;;2.80;2.60;;;22.90;45.80;;;;;;5056309;28;20446;-43
2022/05/22 00:26:38;;;;;;;4.40;2.63;;;22.80;45.90;;;;;;5059979;28;20531;-43
2022/05/22 00:29:04;;;;;;;4.40;2.53;;;22.80;46.00;;;;;;5061597;28;20571;-43
2022/05/22 00:31:30;;;;;;;8.17;3.60;;;22.80;46.10;;;;;;5057609;28;20446;-43
2022/05/22 00:33:56;;;;;;;3.07;2.77;;;22.80;46.00;;;;;;5063112;28;20442;-43
2022/05/22 00:36:22;;;;;;;6.50;2.77;;;22.60;46.40;;;;;;5064950;28;20583;-43
2022/05/22 00:38:48;;;;;;;4.37;2.57;;;22.70;46.30;;;;;;5064019;28;20192;-43
2022/05/22 00:41:14;;;;;;;2.80;2.20;;;22.60;46.40;;;;;;5059940;28;20192;-42
2022/05/22 00:43:43;;;;;;;3.20;2.90;;;22.60;46.30;;;;;;5057213;28;20197;-43
2022/05/22 00:46:12;;;;;;;5.23;3.43;;;22.50;46.70;;;;;;5053237;28;20435;-43
2022/05/22 00:48:40;;;;;;;4.13;2.90;;;22.50;46.70;;;;;;5053997;28;20435;-42
2022/05/22 00:51:13;;;;;;;2.97;2.77;;;22.30;47.60;;;;;;5053796;28;20557;-42
2022/05/22 00:53:44;;;;;;;4.00;2.67;;;22.20;47.20;;;;;;5058423;28;20450;-42
2022/05/22 00:56:14;;;;;;;3.57;3.13;;;22.20;47.30;;;;;;5059058;28;20490;-42
2022/05/22 00:58:41;;;;;;;3.60;2.97;;;22.20;47.10;;;;;;5058867;28;20482;-43
2022/05/22 01:01:06;;;;;;;3.20;2.90;;;22.20;47.00;;;;;;5059002;28;20524;-42
2022/05/22 01:03:32;;;;;;;3.17;2.97;;;22.10;47.20;;;;;;5055779;28;20576;-42
2022/05/22 01:06:07;;;;;;;3.93;2.50;;;22.10;47.20;;;;;;5055109;28;20280;-42
2022/05/22 01:08:35;;;;;;;5.27;2.50;;;22.10;47.40;;;;;;5059569;28;20439;-42
2022/05/22 01:11:09;;;;;;;4.33;3.03;;;22.00;47.40;;;;;;5063213;28;20973;-42
2022/05/22 01:13:42;;;;;;;3.53;2.67;;;22.00;47.20;;;;;;5060498;28;20439;-42
2022/05/22 01:16:07;;;;;;;2.93;2.73;;;21.90;47.60;;;;;;5053140;28;20501;-42
2022/05/22 01:18:44;;;;;;;3.73;2.63;;;21.80;47.60;;;;;;5059991;28;20982;-43
2022/05/22 01:21:17;;;;;;;2.80;2.60;;;21.80;47.80;;;;;;5061732;28;20246;-42
2022/05/22 01:23:43;;;;;;;3.20;2.90;;;21.80;48.00;;;;;;5049158;28;20462;-42
2022/05/22 01:26:10;;;;;;;3.20;2.90;;;21.70;47.90;;;;;;5051646;28;20439;-43
2022/05/22 01:28:35;;;;;;;3.10;2.80;;;21.70;48.10;;;;;;5062012;28;20434;-42
2022/05/22 01:31:02;;;;;;;3.20;2.90;;;21.70;47.90;;;;;;5057814;28;20434;-42
2022/05/22 01:33:28;;;;;;;2.77;2.57;;;21.80;47.80;;;;;;5058603;28;20195;-42
2022/05/22 01:35:54;;;;;;;4.00;3.43;;;21.80;47.70;;;;;;5052684;28;20501;-42
2022/05/22 01:38:20;;;;;;;2.87;2.67;;;21.70;47.70;;;;;;5055588;28;20805;-43
2022/05/22 01:40:46;;;;;;;3.97;2.50;;;21.80;47.80;;;;;;5057042;28;20184;-42
2022/05/22 01:43:12;;;;;;;3.30;3.00;;;21.80;47.70;;;;;;5065869;28;20192;-44
2022/05/22 01:45:41;;;;;;;4.13;2.90;;;21.80;47.50;;;;;;5054455;28;20492;-42
2022/05/22 01:48:07;;;;;;;6.90;3.00;;;21.70;47.70;;;;;;5059345;28;20454;-42
2022/05/22 01:50:33;;;;;;;3.27;3.07;;;21.70;47.70;;;;;;5052873;28;20426;-43
2022/05/22 01:52:59;;;;;;;2.90;2.40;;;21.50;48.00;;;;;;5051516;28;20439;-43
2022/05/22 01:55:25;;;;;;;6.10;2.43;;;21.50;48.10;;;;;;5053917;28;20821;-42
2022/05/22 01:57:50;;;;;;;6.30;2.60;;;21.50;48.30;;;;;;5053439;28;20283;-42
2022/05/22 02:00:19;;;;;;;3.80;3.03;;;21.40;48.60;;;;;;5062960;28;20215;-41
2022/05/22 02:02:46;;;;;;;3.47;2.57;;;21.30;48.60;;;;;;5062940;28;20255;-42
2022/05/22 02:05:13;;;;;;;4.50;2.97;;;21.20;48.60;;;;;;5058448;28;20849;-42
2022/05/22 02:10:24;;;;;;;3.57;2.90;;;20.90;49.00;;;;;;5058742;28;20445;-42
2022/05/22 02:12:51;;;;;;;2.70;2.50;;;20.70;49.40;;;;;;5065671;28;20450;-42
2022/05/22 02:15:18;;;;;;;3.87;2.87;;;20.30;50.00;;;;;;5059208;28;20465;-42
2022/05/22 02:17:43;;;;;;;2.77;2.57;;;20.10;50.80;;;;;;5057549;28;20443;-41
2022/05/22 02:20:10;;;;;;;3.53;3.10;;;19.90;50.90;;;;;;5053587;28;20446;-41
2022/05/22 02:22:41;;;;;;;2.90;2.70;;;19.80;51.70;;;;;;5060855;28;20199;-42
2022/05/22 02:25:07;;;;;;;3.43;2.90;;;19.60;51.70;;;;;;5056401;28;20485;-42
2022/05/22 02:27:33;;;;;;;3.27;2.47;;;19.60;52.10;;;;;;5060512;28;20442;-42
2022/05/22 02:30:00;;;;;;;3.73;2.97;;;19.40;52.40;;;;;;5059726;28;21202;-42
2022/05/22 02:32:26;;;;;;;2.60;2.40;;;19.30;52.70;;;;;;5067175;28;20666;-42
2022/05/22 02:34:51;;;;;;;3.17;2.83;;;19.30;52.60;;;;;;5065549;28;20434;-42
2022/05/22 02:37:17;;;;;;;4.33;3.03;;;19.20;52.80;;;;;;5054312;28;20219;-43
2022/05/22 02:39:43;;;;;;;3.93;3.10;;;19.20;53.00;;;;;;5057099;28;20200;-42
2022/05/22 02:42:09;;;;;;;3.00;2.70;;;19.20;52.90;;;;;;5054587;28;20195;-42
2022/05/22 02:44:34;;;;;;;3.20;2.90;;;19.30;52.70;;;;;;5067745;28;20664;-42
2022/05/22 02:47:00;;;;;;;2.93;2.70;;;19.20;53.10;;;;;;5055678;28;20187;-42
2022/05/22 02:49:25;;;;;;;3.10;2.80;;;19.10;53.20;;;;;;5056044;28;20215;-42
2022/05/22 02:51:51;;;;;;;3.77;2.73;;;19.20;53.20;;;;;;5063554;28;20873;-43
2022/05/22 02:54:17;;;;;;;3.50;2.80;;;19.20;52.90;;;;;;5060763;28;20196;-42
2022/05/22 02:56:42;;;;;;;3.40;3.10;;;19.30;52.90;;;;;;5067022;28;20289;-41
2022/05/22 02:59:08;;;;;;;3.60;2.90;;;19.30;53.00;;;;;;5064299;28;20196;-42
2022/05/22 03:01:34;;;;;;;3.57;2.97;;;19.10;53.20;;;;;;5055734;28;20184;-42
2022/05/22 03:03:59;;;;;;;3.50;3.20;;;19.10;53.10;;;;;;5055655;28;20996;-44
2022/05/22 03:06:40;;;;;;;3.40;2.77;;;19.00;53.30;;;;;;5050904;28;20695;-42
2022/05/22 03:09:09;;;;;;;3.10;2.80;;;18.80;53.80;;;;;;5051133;28;20287;-42
2022/05/22 03:11:39;;;;;;;3.47;3.17;;;18.80;53.90;;;;;;5064557;28;20462;-42
2022/05/22 03:14:05;;;;;;;3.07;2.83;;;18.80;54.00;;;;;;5059144;28;20438;-43
2022/05/22 03:16:31;;;;;;;4.10;3.07;;;18.60;54.20;;;;;;5059919;28;20493;-42
2022/05/22 03:18:56;;;;;;;6.57;3.40;;;18.70;54.20;;;;;;5066738;28;20192;-42
2022/05/22 03:21:22;;;;;;;3.80;3.47;;;18.50;54.60;;;;;;5064907;28;20285;-41
2022/05/22 03:23:48;;;;;;;2.90;2.60;;;18.50;54.40;;;;;;5056471;28;20192;-42
2022/05/22 03:26:13;;;;;;;3.30;3.10;;;18.60;54.30;;;;;;5051118;28;20200;-42
2022/05/22 03:28:39;;;;;;;6.03;3.40;;;18.40;54.70;;;;;;5060061;28;20195;-43
2022/05/22 03:31:05;;;;;;;3.50;3.20;;;18.30;54.80;;;;;;5064535;28;20199;-42
2022/05/22 03:33:30;;;;;;;4.33;3.57;;;18.30;55.00;;;;;;5054910;28;20215;-42
2022/05/22 03:35:56;;;;;;;3.47;3.13;;;18.20;55.60;;;;;;5059957;28;20216;-42
2022/05/22 03:38:22;;;;;;;3.47;3.17;;;18.10;55.20;;;;;;5057070;28;20280;-42
2022/05/22 03:40:48;;;;;;;3.43;3.13;;;18.10;55.50;;;;;;5053495;28;20242;-41
2022/05/22 03:43:15;;;;;;;3.07;2.87;;;17.70;55.90;;;;;;5059844;28;20205;-41
2022/05/22 03:45:42;;;;;;;7.30;3.37;;;17.80;56.20;;;;;;5047964;28;20446;-42
2022/05/22 03:48:07;;;;;;;4.67;3.17;;;17.90;56.00;;;;;;5061522;28;20449;-42
2022/05/22 03:50:33;;;;;;;3.43;3.03;;;18.00;55.80;;;;;;5057954;28;20438;-42
2022/05/22 03:52:59;;;;;;;3.33;3.13;;;18.10;55.30;;;;;;5057117;28;20253;-42
2022/05/22 03:55:24;;;;;;;5.40;3.30;;;18.10;55.10;;;;;;5052025;28;20220;-42
2022/05/22 03:57:50;;;;;;;3.80;2.80;;;18.10;55.30;;;;;;5070305;28;20200;-42
2022/05/22 04:00:18;;;;;;;6.40;3.30;;;18.10;55.20;;;;;;5050453;28;20196;-42
2022/05/22 04:02:45;;;;;;;3.83;3.50;;;18.00;55.10;;;;;;5055694;28;20628;-41
2022/05/22 04:05:11;;;;;;;3.40;3.10;;;18.00;55.70;;;;;;5062247;28;20438;-42
2022/05/22 04:07:39;;;;;;;3.67;3.33;;;18.20;55.40;;;;;;5057861;28;20479;-42
2022/05/22 04:10:06;;;;;;;3.13;2.90;;;18.30;54.70;;;;;;5057212;28;20472;-42
2022/05/22 04:12:32;;;;;;;4.50;3.30;;;18.40;55.20;;;;;;5057979;28;20449;-42
2022/05/22 04:15:01;;;;;;;2.90;2.70;;;18.60;56.00;;;;;;5057750;28;20484;-42
2022/05/22 04:17:26;;;;;;;3.90;3.50;;;18.70;55.80;;;;;;5060785;28;20683;-41
2022/05/22 04:19:52;;;;;;;5.30;2.80;;;19.00;55.00;;;;;;5063479;28;20470;-42
2022/05/22 04:22:17;;;;;;;3.80;3.37;;;19.30;54.20;;;;;;5055027;28;20598;-42
2022/05/22 04:27:27;;;;;;;5.73;2.67;;;19.50;53.60;;;;;;5051468;28;20208;-42
2022/05/22 04:29:53;;;;;;;6.60;3.73;;;19.60;53.50;;;;;;5069998;28;20442;-42
2022/05/22 04:32:19;;;;;;;4.33;3.07;;;19.70;53.10;;;;;;5063849;28;20500;-42
2022/05/22 04:34:45;;;;;;;3.40;3.10;;;19.70;53.20;;;;;;5063722;28;20280;-41
2022/05/22 04:37:10;;;;;;;3.80;3.50;;;19.90;52.90;;;;;;5060443;28;20531;-41
2022/05/22 04:39:36;;;;;;;6.60;3.27;;;20.10;52.80;;;;;;5060422;28;20199;-41
2022/05/22 04:42:02;;;;;;;3.20;2.90;;;20.20;52.00;;;;;;5052467;28;20203;-43
2022/05/22 04:44:28;;;;;;;3.30;3.00;;;20.30;52.20;;;;;;5055475;28;20195;-42
2022/05/22 04:46:53;;;;;;;3.40;3.10;;;20.40;52.00;;;;;;5059009;28;20512;-42
2022/05/22 04:49:19;;;;;;;5.33;3.20;;;20.60;51.50;;;;;;5058195;28;20188;-43
2022/05/22 04:51:45;;;;;;;3.33;3.13;;;20.70;51.10;;;;;;5061498;28;20625;-42
2022/05/22 04:54:11;;;;;;;3.90;2.90;;;20.80;50.40;;;;;;5064579;28;20204;-41
2022/05/22 04:56:37;;;;;;;2.97;2.77;;;20.80;50.80;;;;;;5070260;28;20218;-43
2022/05/22 04:59:03;;;;;;;3.30;2.80;;;20.80;50.60;;;;;;5057325;28;20520;-42
2022/05/22 05:01:28;;;;;;;3.10;2.90;;;20.90;50.80;;;;;;5066515;28;20469;-42
2022/05/22 05:03:54;;;;;;;4.37;3.00;;;21.00;50.80;;;;;;5062048;28;20232;-42
2022/05/22 05:06:20;;;;;;;10.03;3.47;;;20.90;49.80;;;;;;5061752;28;20195;-43
2022/05/22 05:08:45;;;;;;;5.63;2.87;;;21.00;50.90;;;;;;5058927;28;20208;-43
2022/05/22 05:11:11;;;;;;;3.53;3.23;;;21.10;50.20;;;;;;5058329;28;20192;-43
2022/05/22 05:13:38;;;;;;;3.23;3.03;;;21.00;49.50;;;;;;5056452;28;20196;-42
2022/05/22 05:16:05;;;;;;;2.87;2.67;;;21.10;50.60;;;;;;5061183;28;20880;-43
2022/05/22 05:18:31;;;;;;;2.97;2.53;;;20.80;49.90;;;;;;5063249;28;20584;-44
2022/05/22 05:21:00;;;;;;;2.80;2.60;;;20.90;51.20;;;;;;5059505;28;20469;-43
2022/05/22 05:23:25;;;;;;;3.20;3.00;;;21.00;50.80;;;;;;5066319;28;20438;-43
2022/05/22 05:25:51;;;;;;;2.97;2.43;;;20.80;50.80;;;;;;5065771;28;21234;-42
2022/05/22 05:28:17;;;;;;;2.80;2.60;;;20.90;51.20;;;;;;5051860;28;20203;-42
2022/05/22 05:30:42;;;;;;;3.23;3.03;;;21.10;50.70;;;;;;5061463;28;20246;-44
2022/05/22 05:33:08;;;;;;;3.10;2.80;;;21.10;50.10;;;;;;5051605;28;20192;-44
2022/05/22 05:35:35;;;;;;;3.47;2.73;;;21.20;50.40;;;;;;5054896;28;20200;-43
2022/05/22 05:38:00;;;;;;;3.83;2.80;;;21.40;50.40;;;;;;5061465;28;20885;-42
2022/05/22 05:40:26;;;;;;;2.73;2.50;;;21.60;49.80;;;;;;5048391;28;20223;-42
2022/05/22 05:42:52;;;;;;;6.80;3.20;;;21.60;49.80;;;;;;5059695;28;20220;-42
2022/05/22 05:45:17;;;;;;;9.33;3.40;;;21.70;49.70;;;;;;5053161;28;20201;-43
2022/05/22 05:47:47;;;;;;;3.90;2.53;;;21.70;50.40;;;;;;5061419;28;20246;-42
2022/05/22 05:50:15;;;;;;;3.13;2.83;;;21.90;49.80;;;;;;5055958;28;20204;-43
2022/05/22 05:52:41;;;;;;;4.80;2.50;;;22.00;49.10;;;;;;5057715;28;20442;-42
2022/05/22 05:55:07;;;;;;;5.33;2.50;;;22.20;48.60;;;;;;5062655;28;20438;-43
2022/05/22 05:57:32;;;;;;;4.57;2.53;;;22.20;48.10;;;;;;5051722;28;20224;-42
2022/05/22 05:59:58;;;;;;;3.10;2.50;;;22.30;48.10;;;;;;5049542;28;21048;-43
2022/05/22 06:02:24;;;;;;;2.30;2.10;;;22.30;47.90;;;;;;5058179;28;20662;-43
2022/05/22 06:04:50;;;;;;;5.73;1.90;;;22.20;48.20;;;;;;5056167;28;20300;-44
2022/05/22 06:07:16;;;;;;;1.93;1.70;;;21.90;48.90;;;;;;5054712;28;20537;-45
2022/05/22 06:09:42;;;;;;;2.70;2.50;;;21.90;49.20;;;;;;5065825;28;20187;-44
2022/05/22 06:12:08;;;;;;;3.83;2.80;;;22.10;48.80;;;;;;5055376;28;20499;-44
2022/05/22 06:14:34;;;;;;;4.47;2.90;;;22.00;48.20;;;;;;5051868;28;20220;-44
2022/05/22 06:17:00;;;;;;;4.70;2.43;;;21.90;48.30;;;;;;5060872;28;20513;-46
2022/05/22 06:22:13;;;;;;;2.20;2.10;;;22.00;48.20;;;;;;5059023;28;20190;-43
2022/05/22 06:24:39;;;;;;;2.80;2.60;;;22.10;48.20;;;;;;5063716;28;20460;-45
2022/05/22 06:27:04;;;;;;;3.50;2.30;;;22.00;48.40;;;;;;5057002;28;20442;-46
2022/05/22 06:29:30;;;;;;;2.73;2.53;;;22.10;48.50;;;;;;5061150;28;20442;-44
2022/05/22 06:31:56;;;;;;;5.43;2.93;;;21.40;49.50;;;;;;5058868;28;20435;-44
2022/05/22 06:34:22;;;;;;;6.00;2.93;;;21.50;49.70;;;;;;5062106;28;20208;-47
2022/05/22 06:36:49;;;;;;;4.07;2.50;;;21.80;49.40;;;;;;5058957;28;20477;-42
2022/05/22 06:42:00;;;;;;;3.30;2.57;;;22.40;48.50;;;;;;5054380;28;20643;-44
2022/05/22 06:44:25;;;;;;;2.03;1.90;;;22.60;48.00;;;;;;5060233;28;20537;-42
2022/05/22 06:46:51;;;;;;;2.40;2.10;;;22.80;48.00;;;;;;5055477;28;20438;-42
2022/05/22 06:49:16;;;;;;;2.93;2.20;;;23.10;47.80;;;;;;5052228;28;20657;-42
2022/05/22 06:55:05;;;;;;;4.10;2.40;;;23.40;47.20;;;;;;5140589;23;20253;-42
2022/05/22 06:57:32;;;;;;;2.60;1.77;;;23.80;46.60;;;;;;4990105;28;20489;-42
2022/05/22 06:59:59;;;;;;;3.67;2.03;;;24.00;46.00;;;;;;4986361;28;20468;-42
2022/05/22 07:02:30;;;;;;;6.10;2.30;;;24.20;45.60;;;;;;4990371;28;20430;-42
2022/05/22 07:04:56;;;;;;;2.43;2.23;;;24.30;45.40;;;;;;4977866;28;20465;-42
2022/05/22 07:07:22;;;;;;;2.43;2.23;;;24.50;45.00;;;;;;4990050;28;20429;-42
2022/05/22 07:09:48;;;;;;;4.10;2.50;;;24.60;45.00;;;;;;4990605;28;20924;-42
2022/05/22 07:12:15;;;;;;;2.10;2.00;;;24.70;44.80;;;;;;4987843;28;20442;-42
2022/05/22 07:14:42;;;;;;;3.13;2.23;;;24.80;44.50;;;;;;4988288;28;20198;-42
2022/05/22 07:17:09;;;;;;;2.67;2.37;;;24.80;44.30;;;;;;4975066;28;20580;-43
2022/05/22 07:19:37;;;;;;;3.10;2.20;;;25.00;44.00;;;;;;4974834;28;20487;-43
2022/05/22 07:22:04;;;;;;;2.90;2.20;;;25.10;43.60;;;;;;4975293;28;20426;-43
2022/05/22 07:24:30;;;;;;;3.47;2.00;;;25.10;43.30;;;;;;4971491;28;20419;-43
2022/05/22 07:26:56;;;;;;;1.90;1.80;;;25.10;42.70;;;;;;4992569;28;20433;-42
2022/05/22 07:29:21;;;;;;;2.80;2.03;;;25.10;43.00;;;;;;4992428;28;20245;-42
2022/05/22 07:31:47;;;;;;;5.00;2.30;;;25.20;43.00;;;;;;4979256;28;20191;-42
2022/05/22 07:34:13;;;;;;;2.00;1.90;;;25.30;42.70;;;;;;4974621;28;20187;-42
2022/05/22 07:36:38;;;;;;;2.20;2.00;;;25.50;43.00;;;;;;4973970;28;20230;-43
2022/05/22 07:39:04;;;;;;;2.57;2.30;;;25.60;43.00;;;;;;4974962;28;20206;-42
2022/05/22 07:41:31;;;;;;;2.00;1.90;;;25.60;42.60;;;;;;4993096;28;20194;-42
2022/05/22 07:43:57;;;;;;;3.90;2.10;;;25.40;42.90;;;;;;4993524;28;20457;-42
2022/05/22 07:46:23;;;;;;;2.83;2.53;;;25.40;42.50;;;;;;4993205;28;20909;-43
2022/05/22 07:48:48;;;;;;;2.13;1.70;;;25.50;42.20;;;;;;4993643;28;20513;-42
2022/05/22 07:51:14;;;;;;;2.63;2.20;;;25.60;42.30;;;;;;4992014;28;20642;-43
2022/05/22 07:53:40;;;;;;;3.47;2.00;;;25.80;42.20;;;;;;4983242;28;20191;-42
2022/05/22 07:56:06;;;;;;;2.13;2.03;;;25.90;42.00;;;;;;4992560;28;20237;-44
2022/05/22 07:58:33;;;;;;;2.47;2.00;;;26.10;41.80;;;;;;4993535;28;20202;-43
2022/05/22 08:00:59;;;;;;;4.80;3.33;;;26.20;42.10;;;;;;4992167;28;20281;-42
2022/05/22 08:03:25;;;;;;;3.30;2.00;;;26.30;40.90;;;;;;4993176;28;20437;-43
2022/05/22 08:05:53;;;;;;;3.70;2.17;;;26.30;40.70;;;;;;4991002;28;20563;-43
2022/05/22 08:08:19;;;;;;;3.73;2.00;;;26.30;40.10;;;;;;4993391;28;20210;-46
2022/05/22 08:10:44;;;;;;;2.50;2.00;;;26.40;40.20;;;;;;4991930;28;20519;-44
2022/05/22 08:13:12;;;;;;;2.50;2.30;;;26.50;39.40;;;;;;4974347;28;20274;-43
2022/05/22 08:15:39;;;;;;;2.97;2.37;;;26.50;39.40;;;;;;4972872;28;20531;-42
2022/05/22 08:18:07;;;;;;;2.37;2.17;;;26.50;39.20;;;;;;4973699;28;20439;-43
2022/05/22 08:20:34;;;;;;;2.00;1.70;;;26.50;39.70;;;;;;4973196;28;20443;-43
2022/05/22 08:23:03;;;;;;;1.53;1.43;;;26.60;39.00;;;;;;4985326;28;20484;-45
2022/05/22 08:25:29;;;;;;;2.67;1.80;;;26.70;37.80;;;;;;4972689;28;20964;-43
2022/05/22 08:27:56;;;;;;;3.20;1.77;;;26.90;38.50;;;;;;4973647;28;20918;-42
2022/05/22 08:30:24;;;;;;;2.20;1.70;;;27.10;38.20;;;;;;4986071;28;20429;-43
2022/05/22 08:32:51;;;;;;;3.30;1.87;;;27.30;37.50;;;;;;4990538;28;20455;-42
2022/05/22 08:35:20;;;;;;;2.33;1.30;;;27.30;37.30;;;;;;4991947;28;20437;-45
2022/05/22 08:37:46;;;;;;;2.00;1.80;;;27.30;36.40;;;;;;4992626;28;20564;-43
2022/05/22 08:40:17;;;;;;;2.13;1.40;;;27.30;37.20;;;;;;4992534;28;20426;-42
2022/05/22 08:43:04;;;;;;;3.70;2.00;;;27.40;36.90;;;;;;4992280;28;20442;-43
2022/05/22 08:45:46;;;;;;;2.00;1.80;;;27.60;36.30;;;;;;4986463;28;20458;-44
2022/05/22 08:48:20;;;;;;;1.60;1.37;;;27.70;35.50;;;;;;4991729;28;20456;-45
2022/05/22 08:50:49;;;;;;;2.17;1.57;;;27.90;35.80;;;;;;4992257;28;21125;-44
2022/05/22 08:53:25;;;;;;;1.40;1.30;;;28.10;34.90;;;;;;4982582;28;20481;-43
2022/05/22 08:58:57;;;;;;;2.10;1.67;;;28.40;34.10;;;;;;4991981;28;20512;-42
2022/05/22 09:01:46;;;;;;;2.97;1.47;;;28.60;33.50;;;;;;4990531;28;20469;-43
2022/05/22 09:04:17;;;;;;;1.63;1.53;;;28.60;33.80;;;;;;4992223;28;20913;-42
2022/05/22 09:07:00;;;;;;;4.10;1.50;;;28.70;33.20;;;;;;4992308;28;20768;-42
2022/05/22 09:09:29;;;;;;;1.53;1.43;;;28.80;33.60;;;;;;4986261;28;20446;-42
2022/05/22 09:12:31;;;;;;;2.87;1.50;;;28.70;32.00;;;;;;4972396;28;20485;-42
2022/05/22 09:15:08;;;;;;;1.37;1.17;;;28.50;32.40;;;;;;4982820;28;20445;-42
2022/05/22 09:17:54;;;;;;;1.60;1.50;;;28.50;31.70;;;;;;4992165;28;20995;-43
2022/05/22 09:20:26;;;;;;;2.30;1.57;;;28.60;31.60;;;;;;4990557;28;20921;-43
2022/05/22 09:23:22;;;;;;;2.10;1.10;;;28.70;32.60;;;;;;4992083;28;20441;-42
2022/05/22 09:26:10;;;;;;;6.40;1.40;;;28.80;31.80;;;;;;4986401;28;20460;-42
2022/05/22 09:28:46;;;;;;;2.53;1.43;;;28.80;31.30;;;;;;4990444;28;20484;-42
2022/05/22 09:31:19;;;;;;;2.50;1.40;;;28.90;31.70;;;;;;4991417;28;20442;-42
2022/05/22 09:34:07;;;;;;;1.77;1.50;;;29.10;31.90;;;;;;4991982;28;20419;-43
2022/05/22 09:36:51;;;;;;;2.00;1.67;;;29.10;30.90;;;;;;4976419;28;20513;-43
2022/05/22 09:39:54;;;;;;;1.63;1.53;;;29.30;31.80;;;;;;4976576;28;20476;-44
2022/05/22 09:43:30;;;;;;;1.40;1.30;;;29.40;33.10;;;;;;4983667;28;20445;-43
2022/05/22 09:46:12;;;;;;;2.80;1.77;;;29.50;31.60;;;;;;4944856;29;20463;-44
2022/05/22 09:48:57;;;;;;;2.70;1.40;;;29.60;31.80;;;;;;4948177;28;20452;-42
2022/05/22 09:51:35;;;;;;;1.30;1.20;;;29.60;31.80;;;;;;4973303;28;20467;-45
2022/05/22 09:54:03;;;;;;;1.60;1.50;;;29.70;31.30;;;;;;4983664;28;20492;-44
2022/05/22 09:56:53;;;;;;;2.33;1.97;;;29.80;31.10;;;;;;4985538;28;20564;-42
2022/05/22 09:59:43;;;;;;;2.53;1.90;;;29.70;30.40;;;;;;4990465;28;20546;-44
2022/05/22 10:02:46;;;;;;;1.67;1.43;;;29.70;32.00;;;;;;4979101;28;20449;-43
2022/05/22 10:05:37;;;;;;;1.60;1.50;;;29.90;32.40;;;;;;4988583;28;20808;-43
2022/05/22 10:08:41;;;;;;;2.07;1.47;;;30.10;32.30;;;;;;4979627;28;20548;-43
2022/05/22 10:11:37;;;;;;;1.60;1.50;;;30.10;31.30;;;;;;4989389;28;21010;-42
2022/05/22 10:14:24;;;;;;;2.90;1.50;;;30.50;31.70;;;;;;4984166;28;20461;-42
2022/05/22 10:17:20;;;;;;;3.10;1.60;;;30.70;31.70;;;;;;4984029;28;20481;-42
2022/05/22 10:19:55;;;;;;;2.10;1.90;;;30.90;30.40;;;;;;4990455;28;20855;-44
2022/05/22 10:22:21;;;;;;;2.00;1.60;;;31.00;30.90;;;;;;4987417;28;20515;-44
2022/05/22 10:25:22;;;;;;;3.00;1.73;;;31.20;31.20;;;;;;4988077;28;20449;-42
2022/05/22 10:27:59;;;;;;;2.00;1.60;;;31.30;31.80;;;;;;4984143;28;20197;-46
2022/05/22 10:30:40;;;;;;;3.30;1.63;;;31.60;30.60;;;;;;4972889;28;20430;-44
2022/05/22 10:33:18;;;;;;;1.60;1.47;;;31.70;29.80;;;;;;4988679;28;20484;-45
2022/05/22 10:36:07;;;;;;;4.90;1.50;;;31.90;29.30;;;;;;4979355;28;20452;-44
2022/05/22 10:38:54;;;;;;;3.13;1.60;;;32.10;29.30;;;;;;4988075;28;20449;-43
2022/05/22 10:44:30;;;;;;;3.27;1.70;;;32.30;29.00;;;;;;4982917;28;20468;-42
2022/05/22 10:47:02;;;;;;;1.80;1.70;;;32.50;29.40;;;;;;4987164;28;20585;-43
2022/05/22 10:49:45;;;;;;;2.20;1.60;;;32.60;29.20;;;;;;4988795;28;20529;-43
2022/05/22 10:52:14;;;;;;;4.67;2.10;;;32.80;28.80;;;;;;4986631;28;20554;-46
2022/05/22 10:54:46;;;;;;;1.80;1.70;;;32.90;28.30;;;;;;4990194;28;20481;-43
2022/05/22 10:57:19;;;;;;;4.00;1.40;;;33.00;29.00;;;;;;4987910;28;20534;-42
2022/05/22 10:59:46;;;;;;;2.73;1.50;;;33.10;28.60;;;;;;4990270;28;21068;-44
2022/05/22 11:02:19;;;;;;;1.60;1.40;;;33.20;28.10;;;;;;4990154;28;20455;-44
2022/05/22 11:04:46;;;;;;;2.67;1.70;;;33.40;28.00;;;;;;4993565;28;20860;-45
2022/05/22 11:07:13;;;;;;;2.40;1.70;;;33.50;28.40;;;;;;4993246;28;20460;-47
2022/05/22 11:09:47;;;;;;;1.40;1.30;;;33.60;28.00;;;;;;4987635;28;20537;-46
2022/05/22 11:12:19;;;;;;;1.40;1.23;;;33.70;28.10;;;;;;4980166;28;20765;-43
2022/05/22 11:14:45;;;;;;;1.80;1.70;;;33.80;28.20;;;;;;4982029;28;20434;-46
2022/05/22 11:17:15;;;;;;;1.93;1.50;;;33.90;27.00;;;;;;4991279;28;20843;-45
2022/05/22 11:19:42;;;;;;;2.63;2.00;;;33.90;26.50;;;;;;4980408;28;20441;-44
2022/05/22 11:22:08;;;;;;;1.87;1.77;;;33.90;26.50;;;;;;4993051;28;20481;-47
2022/05/22 11:24:58;;;;;;;1.70;1.60;;;34.00;26.70;;;;;;4990258;28;20477;-46
2022/05/22 11:27:49;;;;;;;1.87;1.60;;;34.20;26.80;;;;;;4990767;28;20195;-44
2022/05/22 11:30:52;;;;;;;3.10;1.77;;;34.30;26.90;;;;;;4985477;28;20465;-47
2022/05/22 11:33:23;;;;;;;3.37;1.60;;;34.30;26.70;;;;;;4983479;28;20457;-43
2022/05/22 11:35:54;;;;;;;1.90;1.40;;;34.30;26.70;;;;;;4992681;28;20468;-46
2022/05/22 11:38:49;;;;;;;2.57;1.53;;;34.50;26.90;;;;;;4987502;28;21011;-44
2022/05/22 11:41:37;;;;;;;1.53;1.43;;;34.50;26.80;;;;;;4991824;28;20481;-45
2022/05/22 11:44:19;;;;;;;3.50;1.60;;;34.50;27.50;;;;;;4984740;28;20509;-45
2022/05/22 11:47:05;;;;;;;1.40;1.30;;;34.50;27.80;;;;;;4989923;28;20446;-45
2022/05/22 11:49:47;;;;;;;3.43;1.70;;;34.50;26.90;;;;;;4990365;28;20537;-43
2022/05/22 11:55:35;;;;;;;1.60;1.50;;;34.50;26.90;;;;;;4990469;28;20503;-43
2022/05/22 11:58:15;;;;;;;2.13;1.70;;;34.50;27.00;;;;;;4972079;28;20494;-42
2022/05/22 12:01:09;;;;;;;2.47;1.50;;;34.60;27.50;;;;;;4986574;28;20481;-43
2022/05/22 12:04:03;;;;;;;2.40;1.40;;;34.60;26.60;;;;;;4988633;28;20465;-43
2022/05/22 12:06:38;;;;;;;1.57;1.47;;;34.70;26.80;;;;;;4990665;28;20481;-43
2022/05/22 12:09:08;;;;;;;1.57;1.47;;;34.80;26.00;;;;;;4983089;28;20450;-43
2022/05/22 12:12:03;;;;;;;2.63;1.73;;;34.90;26.80;;;;;;4991569;28;20881;-45
2022/05/22 12:14:50;;;;;;;1.80;1.70;;;34.90;27.30;;;;;;4989238;28;20473;-45
2022/05/22 12:17:38;;;;;;;3.60;1.73;;;35.00;26.80;;;;;;4988850;28;20477;-44
2022/05/22 12:20:33;;;;;;;2.30;1.37;;;35.00;26.70;;;;;;4989069;28;20480;-43
2022/05/22 12:23:07;;;;;;;2.40;1.97;;;35.10;25.60;;;;;;4990523;28;20458;-44
2022/05/22 12:25:35;;;;;;;1.73;1.63;;;35.10;25.30;;;;;;4991165;28;20449;-45
2022/05/22 12:28:02;;;;;;;2.87;1.60;;;35.10;26.00;;;;;;4989972;28;20549;-47
2022/05/22 12:30:42;;;;;;;1.67;1.57;;;35.20;25.80;;;;;;4991242;28;20441;-49
2022/05/22 12:33:11;;;;;;;2.03;1.60;;;35.30;25.60;;;;;;4980493;28;20482;-45
2022/05/22 12:35:40;;;;;;;2.40;1.40;;;35.40;25.00;;;;;;4975613;28;20886;-44
2022/05/22 12:38:09;;;;;;;3.93;1.47;;;35.50;24.60;;;;;;4979825;28;20550;-44
2022/05/22 12:40:50;;;;;;;3.03;1.80;;;35.40;24.60;;;;;;4991882;28;20441;-43
2022/05/22 12:43:22;;;;;;;1.60;1.50;;;35.40;24.60;;;;;;4990563;28;20804;-44
2022/05/22 12:46:00;;;;;;;2.27;2.03;;;35.40;25.00;;;;;;4991764;28;20913;-45
2022/05/22 12:48:32;;;;;;;2.20;1.73;;;35.50;26.20;;;;;;4992985;28;20441;-43
2022/05/22 12:51:36;;;;;;;2.00;1.63;;;35.60;26.10;;;;;;4984800;28;20504;-47
2022/05/22 12:54:24;;;;;;;1.77;1.60;;;35.50;25.40;;;;;;4975940;28;20486;-45
2022/05/22 12:56:50;;;;;;;1.77;1.43;;;35.60;24.60;;;;;;4980500;28;20551;-47
2022/05/22 12:59:18;;;;;;;2.53;1.80;;;35.70;24.30;;;;;;4991775;28;20494;-47
2022/05/22 13:01:52;;;;;;;1.97;1.57;;;35.80;25.00;;;;;;4992426;28;20433;-47
2022/05/22 13:04:39;;;;;;;1.90;1.80;;;35.90;25.60;;;;;;4992218;28;20475;-46
2022/05/22 13:07:11;;;;;;;1.97;1.40;;;36.00;24.40;;;;;;4992090;28;20529;-48
2022/05/22 13:09:46;;;;;;;1.93;1.70;;;36.00;23.90;;;;;;4991663;28;20564;-46
2022/05/22 13:12:30;;;;;;;1.70;1.60;;;35.80;23.80;;;;;;4990733;28;20470;-47
2022/05/22 13:14:58;;;;;;;1.57;1.47;;;35.70;23.30;;;;;;4985294;28;20516;-48
2022/05/22 13:17:30;;;;;;;1.60;1.50;;;35.60;24.20;;;;;;4991133;28;20492;-47
2022/05/22 13:20:02;;;;;;;1.53;1.43;;;35.50;24.70;;;;;;4992239;28;20452;-47
2022/05/22 13:22:36;;;;;;;2.23;1.50;;;35.50;25.30;;;;;;4991252;28;20433;-45
2022/05/22 13:25:06;;;;;;;2.30;1.67;;;35.60;24.70;;;;;;4990416;28;20441;-46
2022/05/22 13:27:31;;;;;;;2.10;1.80;;;35.70;24.60;;;;;;4991848;28;20480;-47
2022/05/22 13:30:13;;;;;;;1.70;1.60;;;35.80;25.00;;;;;;4992260;28;20470;-47
2022/05/22 13:32:47;;;;;;;1.83;1.73;;;35.90;24.40;;;;;;4991941;28;20198;-45